Time;durP1;ratioP1;P1;durP2;ratioP2;P2;SDS_P1;SDS_P2;PMS_P1;PMS_P2;Temp;Humidity;BMP_temperature;BMP_pressure;BME280_temperature;BME280_humidity;BME280_pressure;Samples;Min_cycle;Max_cycle;Signal;HPM_P1;HPM_P2
2022/10/27 00:00:37;;;;;;;8.95;5.97;;;;;;;11.27;93.12;100242.31;1759264;78;21513;-74
2022/10/27 00:03:04;;;;;;;9.88;7.08;;;;;;;11.35;92.70;100244.17;1760875;78;21033;-78
2022/10/27 00:05:30;;;;;;;10.90;7.30;;;;;;;11.32;92.67;100238.69;1773674;80;21152;-77
2022/10/27 00:07:57;;;;;;;10.23;6.62;;;;;;;11.30;92.85;100249.13;1763756;79;21136;-77
2022/10/27 00:10:23;;;;;;;7.92;5.95;;;;;;;11.29;92.90;100242.98;1797400;78;21009;-77
2022/10/27 00:12:51;;;;;;;8.43;7.17;;;;;;;11.38;92.46;100252.67;1762985;80;21003;-76
2022/10/27 00:15:17;;;;;;;16.15;7.37;;;;;;;11.40;92.28;100249.35;1752903;80;21076;-77
2022/10/27 00:17:44;;;;;;;9.88;7.15;;;;;;;11.37;92.30;100246.17;1776584;80;21083;-78
2022/10/27 00:20:11;;;;;;;10.08;6.45;;;;;;;11.34;92.17;100249.17;1780685;80;21030;-76
2022/10/27 00:22:37;;;;;;;7.75;6.85;;;;;;;11.35;92.00;100248.16;1761764;80;21564;-76
2022/10/27 00:25:04;;;;;;;8.43;7.03;;;;;;;11.41;91.75;100248.84;1760854;80;21006;-75
2022/10/27 00:27:31;;;;;;;10.43;7.28;;;;;;;11.38;91.76;100254.00;1757210;80;21065;-78
2022/10/27 00:29:57;;;;;;;11.00;7.97;;;;;;;11.36;91.91;100257.83;1771794;80;21197;-76
2022/10/27 00:32:24;;;;;;;11.68;7.60;;;;;;;11.34;91.94;100258.48;1781394;80;21009;-74
2022/10/27 00:34:50;;;;;;;9.68;7.20;;;;;;;11.44;91.75;100266.34;1771818;80;21020;-76
2022/10/27 00:37:17;;;;;;;10.58;7.30;;;;;;;11.51;91.41;100268.66;1768992;80;21079;-75
2022/10/27 00:39:44;;;;;;;10.05;7.85;;;;;;;11.49;91.29;100265.33;1778780;79;21081;-76
2022/10/27 00:42:13;;;;;;;9.98;7.87;;;;;;;11.44;91.29;100262.34;1778811;80;21259;-76
2022/10/27 00:44:43;;;;;;;13.83;6.72;;;;;;;11.45;91.23;100262.66;1765209;80;21305;-77
2022/10/27 00:47:19;;;;;;;8.50;6.65;;;;;;;11.52;90.99;100259.20;1764031;80;20964;-76
2022/10/27 00:50:15;;;;;;;15.32;7.35;;;;;;;11.52;90.86;100265.84;1777262;80;21072;-77
2022/10/27 00:52:46;;;;;;;8.13;6.90;;;;;;;11.50;90.98;100270.50;1761593;80;20986;-75
2022/10/27 00:55:25;;;;;;;7.20;5.60;;;;;;;11.45;90.71;100267.48;1768438;80;21125;-75
2022/10/27 00:57:55;;;;;;;8.53;7.08;;;;;;;11.49;90.44;100270.18;1772518;80;21069;-76
2022/10/27 01:00:21;;;;;;;11.25;8.25;;;;;;;11.51;90.51;100271.33;1781758;80;20954;-76
2022/10/27 01:02:48;;;;;;;7.87;6.87;;;;;;;11.46;90.59;100270.48;1772370;80;21084;-75
2022/10/27 01:05:19;;;;;;;8.25;6.65;;;;;;;11.43;90.63;100273.97;1774195;80;21061;-76
2022/10/27 01:07:47;;;;;;;9.05;6.97;;;;;;;11.45;90.44;100281.28;1780905;80;21162;-74
2022/10/27 01:10:14;;;;;;;10.30;7.00;;;;;;;11.51;90.13;100278.83;1774269;80;21021;-76
2022/10/27 01:12:41;;;;;;;10.05;7.17;;;;;;;11.46;89.88;100277.65;1763389;80;21088;-76
2022/10/27 01:15:08;;;;;;;9.50;7.60;;;;;;;11.32;90.28;100272.41;1766296;80;21019;-75
2022/10/27 01:18:03;;;;;;;8.83;6.97;;;;;;;11.26;90.55;100278.38;1762150;79;21093;-76
2022/10/27 01:20:55;;;;;;;8.63;6.62;;;;;;;11.31;90.47;100286.22;1679855;82;21018;-76
2022/10/27 01:24:00;;;;;;;9.63;7.12;;;;;;;11.32;90.29;100290.56;1757375;80;21048;-74
2022/10/27 01:26:42;;;;;;;15.53;7.80;;;;;;;11.26;90.68;100285.03;1755274;80;20983;-75
2022/10/27 01:29:16;;;;;;;8.48;6.40;;;;;;;11.17;90.86;100282.33;1761105;80;21082;-77
2022/10/27 01:31:52;;;;;;;8.18;6.20;;;;;;;11.24;90.51;100287.84;1775472;80;21129;-77
2022/10/27 01:34:35;;;;;;;9.08;7.70;;;;;;;11.27;90.43;100292.02;1773278;80;21118;-76
2022/10/27 01:37:19;;;;;;;9.35;7.42;;;;;;;11.21;90.62;100293.49;1771337;80;21054;-74
2022/10/27 01:39:59;;;;;;;9.20;6.03;;;;;;;11.16;90.82;100299.77;1758126;80;21568;-73
2022/10/27 01:42:38;;;;;;;7.55;5.97;;;;;;;11.19;90.70;100297.63;1746892;80;21063;-76
2022/10/27 01:45:05;;;;;;;8.03;6.45;;;;;;;11.28;90.27;100309.63;1774380;80;21000;-75
2022/10/27 01:47:33;;;;;;;8.60;6.95;;;;;;;11.25;90.41;100305.48;1771748;78;21040;-75
2022/10/27 01:50:00;;;;;;;7.85;6.55;;;;;;;11.21;90.63;100313.44;1779313;79;21041;-76
2022/10/27 01:52:48;;;;;;;7.35;5.92;;;;;;;11.21;90.47;100314.77;1771528;79;21098;-74
2022/10/27 01:55:41;;;;;;;8.50;6.00;;;;;;;11.26;90.01;100324.92;1767646;78;21049;-76
2022/10/27 01:58:35;;;;;;;9.93;7.03;;;;;;;11.31;89.83;100326.62;1764124;79;21053;-75
2022/10/27 02:01:19;;;;;;;11.85;7.58;;;;;;;11.29;89.97;100324.62;1753557;80;21417;-76
2022/10/27 02:04:00;;;;;;;10.63;7.12;;;;;;;11.25;90.08;100328.59;1724488;78;21040;-76
2022/10/27 02:06:34;;;;;;;7.85;6.20;;;;;;;11.28;89.78;100331.77;1774922;80;21028;-76
2022/10/27 02:09:14;;;;;;;7.17;6.37;;;;;;;11.33;89.42;100333.94;1756132;79;21543;-77
2022/10/27 02:11:43;;;;;;;13.27;7.40;;;;;;;11.27;89.62;100341.23;1761869;80;21130;-76
2022/10/27 02:14:09;;;;;;;11.80;7.78;;;;;;;11.16;89.76;100340.52;1735443;81;21790;-77
2022/10/27 02:16:41;;;;;;;8.25;6.42;;;;;;;11.14;89.80;100341.64;1765438;78;21490;-76
2022/10/27 02:19:19;;;;;;;11.10;6.67;;;;;;;11.19;89.92;100350.00;1775860;79;21046;-76
2022/10/27 02:21:49;;;;;;;9.53;7.62;;;;;;;11.18;89.97;100347.84;1776700;78;21553;-76
2022/10/27 02:24:16;;;;;;;8.60;6.87;;;;;;;11.11;90.15;100346.80;1758082;79;21180;-77
2022/10/27 02:27:02;;;;;;;8.23;6.22;;;;;;;11.07;90.16;100347.24;1758741;79;21332;-76
2022/10/27 02:29:39;;;;;;;9.15;6.70;;;;;;;11.11;90.04;100344.13;1770078;78;21049;-76
2022/10/27 02:32:10;;;;;;;11.18;6.80;;;;;;;11.09;90.07;100354.59;1771456;80;21044;-75
2022/10/27 02:34:37;;;;;;;8.28;6.50;;;;;;;11.01;90.40;100350.06;1758589;80;21069;-77
2022/10/27 02:37:05;;;;;;;6.45;5.85;;;;;;;10.96;90.82;100349.68;1786121;80;21085;-76
2022/10/27 02:39:32;;;;;;;7.40;6.10;;;;;;;11.03;90.59;100354.72;1766486;79;21128;-75
2022/10/27 02:41:58;;;;;;;8.70;6.53;;;;;;;11.11;90.30;100356.60;1777322;79;21036;-75
2022/10/27 02:44:25;;;;;;;8.80;7.15;;;;;;;11.09;90.33;100359.41;1756360;79;21041;-76
2022/10/27 02:46:52;;;;;;;15.03;7.12;;;;;;;11.09;90.65;100354.59;1768633;79;21042;-77
2022/10/27 02:49:18;;;;;;;8.50;6.05;;;;;;;11.09;90.61;100355.42;1757477;79;21022;-76
2022/10/27 02:51:45;;;;;;;8.38;5.80;;;;;;;11.14;90.19;100358.42;1765038;80;21908;-78
2022/10/27 02:54:11;;;;;;;12.20;6.62;;;;;;;11.24;89.79;100357.48;1745143;79;21478;-74
2022/10/27 02:56:38;;;;;;;8.20;6.30;;;;;;;11.25;89.99;100361.84;1745341;80;20990;-75
2022/10/27 02:59:04;;;;;;;8.53;6.37;;;;;;;11.20;89.75;100359.63;1781160;78;21029;-74
2022/10/27 03:01:31;;;;;;;8.50;5.83;;;;;;;11.12;89.65;100364.91;1781767;78;21039;-75
2022/10/27 03:03:57;;;;;;;6.30;5.67;;;;;;;11.14;89.78;100361.09;1771552;79;21196;-74
2022/10/27 03:06:24;;;;;;;8.80;6.65;;;;;;;11.23;89.89;100363.81;1758980;80;21062;-74
2022/10/27 03:08:50;;;;;;;10.10;6.65;;;;;;;11.23;89.84;100366.48;1767096;80;21136;-75
2022/10/27 03:11:17;;;;;;;9.23;6.75;;;;;;;11.19;89.75;100368.11;1757811;79;21021;-76
2022/10/27 03:13:43;;;;;;;8.53;5.33;;;;;;;11.16;89.48;100364.45;1771536;79;21029;-76
2022/10/27 03:16:11;;;;;;;7.78;5.30;;;;;;;11.23;89.43;100366.48;1765734;79;21026;-75
2022/10/27 03:18:39;;;;;;;11.10;5.70;;;;;;;11.21;89.58;100373.28;1777669;78;22247;-74
2022/10/27 03:21:06;;;;;;;7.92;6.53;;;;;;;11.15;89.70;100370.75;1762382;79;21002;-76
2022/10/27 03:23:32;;;;;;;10.25;6.78;;;;;;;11.13;90.04;100378.55;1768742;79;21034;-75
2022/10/27 03:25:59;;;;;;;10.08;6.47;;;;;;;11.19;89.83;100372.60;1778249;78;21010;-77
2022/10/27 03:28:34;;;;;;;7.40;6.53;;;;;;;11.31;89.46;100383.80;1747700;80;21739;-75
2022/10/27 03:30:58;;;;;;;8.00;6.10;;;;;;;11.28;89.46;100380.12;1745099;79;21096;-74
2022/10/27 03:33:26;;;;;;;7.70;5.58;;;;;;;11.25;89.71;100382.61;1769434;78;21053;-75
2022/10/27 03:35:52;;;;;;;7.22;5.55;;;;;;;11.21;89.83;100386.07;1773069;79;21076;-75
2022/10/27 03:38:19;;;;;;;12.18;6.42;;;;;;;11.25;89.57;100383.94;1767312;78;21010;-75
2022/10/27 03:40:45;;;;;;;9.15;6.62;;;;;;;11.30;89.28;100385.64;1773732;78;21257;-76
2022/10/27 03:43:13;;;;;;;8.05;5.92;;;;;;;11.24;89.55;100386.75;1768496;79;21026;-74
2022/10/27 03:45:39;;;;;;;7.70;6.25;;;;;;;11.19;89.74;100388.05;1761838;79;21084;-76
2022/10/27 03:48:12;;;;;;;10.40;6.55;;;;;;;11.12;89.90;100394.16;1740077;79;21020;-73
2022/10/27 03:50:46;;;;;;;8.83;7.08;;;;;;;11.15;89.98;100386.70;1765617;80;21453;-74
2022/10/27 03:53:13;;;;;;;9.75;6.95;;;;;;;11.27;89.80;100393.09;1718995;82;21349;-77
2022/10/27 03:55:39;;;;;;;8.18;6.87;;;;;;;11.25;89.78;100387.92;1759988;78;21066;-75
2022/10/27 03:58:07;;;;;;;9.03;7.40;;;;;;;11.18;89.89;100395.71;1778307;80;21046;-75
2022/10/27 04:00:33;;;;;;;8.78;6.37;;;;;;;11.11;90.10;100390.67;1774792;80;21036;-75
2022/10/27 04:03:00;;;;;;;10.20;7.17;;;;;;;11.12;90.07;100394.98;1747266;78;21108;-75
2022/10/27 04:05:27;;;;;;;10.18;7.42;;;;;;;11.16;90.01;100387.53;1779160;78;21083;-75
2022/10/27 04:07:54;;;;;;;13.90;7.95;;;;;;;11.12;90.44;100393.65;1777453;79;21420;-77
2022/10/27 04:10:20;;;;;;;10.58;8.05;;;;;;;11.07;90.72;100397.76;1786174;78;21085;-77
2022/10/27 04:12:51;;;;;;;9.15;7.03;;;;;;;11.05;91.01;100395.75;1788055;79;21473;-76
2022/10/27 04:15:20;;;;;;;12.90;7.22;;;;;;;11.13;90.77;100399.83;1800067;78;20996;-76
2022/10/27 04:17:47;;;;;;;16.30;9.63;;;;;;;11.15;90.52;100400.00;1757948;80;21136;-75
2022/10/27 04:20:14;;;;;;;13.32;8.93;;;;;;;11.11;90.70;100409.78;1750825;80;21046;-75
2022/10/27 04:25:36;;;;;;;10.85;8.13;;;;;;;11.09;90.92;100412.59;1884211;75;28691;-74
2022/10/27 04:28:06;;;;;;;13.28;7.87;;;;;;;11.09;91.05;100411.27;1803495;78;20998;-76
2022/10/27 04:30:34;;;;;;;10.40;7.53;;;;;;;11.10;91.08;100410.76;1847748;77;21491;-72
2022/10/27 04:33:01;;;;;;;13.32;8.40;;;;;;;11.10;91.02;100416.91;1849595;77;20997;-77
2022/10/27 04:35:28;;;;;;;14.85;8.38;;;;;;;11.19;90.86;100421.30;1851836;75;20991;-74
2022/10/27 04:37:56;;;;;;;10.88;8.18;;;;;;;11.21;91.05;100414.00;1841928;77;20970;-76
2022/10/27 04:40:23;;;;;;;11.12;8.13;;;;;;;11.19;90.76;100411.98;1845199;77;20899;-74
2022/10/27 04:42:50;;;;;;;10.32;7.37;;;;;;;11.16;90.70;100408.33;1852786;75;22294;-75
2022/10/27 04:45:18;;;;;;;8.35;7.40;;;;;;;11.25;90.60;100416.36;1832279;75;21048;-76
2022/10/27 04:47:44;;;;;;;13.93;8.35;;;;;;;11.24;90.46;100417.33;1832765;75;20993;-78
2022/10/27 04:50:12;;;;;;;13.90;7.67;;;;;;;11.16;90.70;100424.28;1844262;77;21660;-78
2022/10/27 04:52:39;;;;;;;13.98;7.50;;;;;;;11.13;90.82;100422.43;1840756;75;21045;-77
2022/10/27 04:55:07;;;;;;;9.50;6.87;;;;;;;11.19;90.68;100432.44;1847480;75;21210;-77
2022/10/27 04:57:34;;;;;;;12.75;8.28;;;;;;;11.28;90.18;100425.34;1852376;77;20991;-77
2022/10/27 05:00:00;;;;;;;8.50;6.90;;;;;;;11.18;90.00;100430.75;1855147;77;20998;-75
2022/10/27 05:02:27;;;;;;;11.68;6.75;;;;;;;11.08;90.35;100426.03;1843354;77;20971;-76
2022/10/27 05:04:53;;;;;;;8.55;6.55;;;;;;;11.05;90.37;100443.14;1851354;75;20955;-75
2022/10/27 05:07:20;;;;;;;9.80;7.47;;;;;;;11.10;90.41;100447.48;1825890;75;21132;-76
2022/10/27 05:09:47;;;;;;;10.90;7.37;;;;;;;11.13;90.55;100447.19;1853104;75;20975;-76
2022/10/27 05:12:14;;;;;;;12.73;7.45;;;;;;;11.11;90.27;100445.69;1835444;75;21026;-77
2022/10/27 05:14:40;;;;;;;12.18;7.40;;;;;;;11.04;90.24;100448.11;1831993;75;21032;-77
2022/10/27 05:17:08;;;;;;;13.50;7.83;;;;;;;11.06;90.12;100451.45;1855045;75;20990;-78
2022/10/27 05:19:34;;;;;;;12.68;7.47;;;;;;;11.08;90.16;100453.95;1852221;75;21181;-77
2022/10/27 05:22:01;;;;;;;12.05;8.03;;;;;;;11.06;90.32;100452.77;1838658;75;21092;-77
2022/10/27 05:24:27;;;;;;;10.45;7.28;;;;;;;11.00;90.30;100454.72;1827329;77;21562;-77
2022/10/27 05:26:54;;;;;;;9.75;6.90;;;;;;;11.02;90.39;100458.89;1846842;75;21058;-77
2022/10/27 05:29:21;;;;;;;17.95;8.15;;;;;;;11.10;90.15;100455.45;1838569;77;21069;-77
2022/10/27 05:31:48;;;;;;;10.50;7.03;;;;;;;11.13;90.28;100460.48;1835881;77;21119;-76
2022/10/27 05:34:14;;;;;;;8.95;7.20;;;;;;;11.12;90.09;100463.29;1846539;77;21038;-75
2022/10/27 05:36:41;;;;;;;11.20;7.10;;;;;;;11.08;90.08;100465.92;1843110;76;21494;-74
2022/10/27 05:39:09;;;;;;;9.93;6.53;;;;;;;11.12;89.89;100465.95;1846707;75;21033;-77
2022/10/27 05:41:35;;;;;;;9.60;6.80;;;;;;;11.21;89.60;100476.50;1854984;75;20966;-76
2022/10/27 05:44:02;;;;;;;7.62;6.67;;;;;;;11.25;89.45;100473.54;1834515;77;21104;-76
2022/10/27 05:46:28;;;;;;;11.25;7.03;;;;;;;11.24;89.48;100481.16;1840003;77;21012;-78
2022/10/27 05:48:56;;;;;;;9.28;6.20;;;;;;;11.27;89.42;100474.22;1845123;75;20968;-77
2022/10/27 05:51:23;;;;;;;8.08;5.75;;;;;;;11.34;88.96;100478.77;1844470;75;21166;-77
2022/10/27 05:53:50;;;;;;;9.50;6.10;;;;;;;11.45;88.47;100481.66;1846385;75;21018;-81
2022/10/27 05:56:18;;;;;;;11.43;6.72;;;;;;;11.44;88.19;100481.33;1846087;75;21227;-80
2022/10/27 05:58:44;;;;;;;9.90;7.28;;;;;;;11.38;88.28;100484.61;1843571;75;21040;-81
2022/10/27 06:01:11;;;;;;;9.20;6.20;;;;;;;11.38;88.17;100488.61;1849220;75;21014;-78
2022/10/27 06:03:37;;;;;;;7.75;6.03;;;;;;;11.37;87.65;100490.41;1843892;75;22878;-80
2022/10/27 06:06:04;;;;;;;10.00;6.95;;;;;;;11.36;87.49;100493.25;1830657;75;21045;-88
2022/10/27 06:08:32;;;;;;;10.25;7.00;;;;;;;11.32;87.53;100498.03;1848549;75;21378;-86
2022/10/27 06:10:58;;;;;;;8.45;6.83;;;;;;;11.25;87.71;100504.95;1846471;75;20954;-88
2022/10/27 06:13:25;;;;;;;8.25;5.92;;;;;;;11.19;87.79;100502.41;1848460;75;20960;-87
2022/10/27 06:15:52;;;;;;;10.48;6.47;;;;;;;11.20;87.89;100508.56;1849142;75;21026;-87
2022/10/27 06:18:20;;;;;;;9.30;6.70;;;;;;;11.28;87.56;100515.30;1858960;76;20987;-88
2022/10/27 06:20:47;;;;;;;8.60;6.30;;;;;;;11.27;87.48;100518.11;1858811;75;21087;-87
2022/10/27 06:23:13;;;;;;;10.30;7.58;;;;;;;11.23;87.70;100515.41;1841854;75;20919;-87
2022/10/27 06:25:40;;;;;;;8.33;5.87;;;;;;;11.16;87.42;100516.03;1849507;77;20907;-85
2022/10/27 06:28:06;;;;;;;7.50;5.97;;;;;;;11.17;87.53;100516.86;1859190;77;20963;-83
2022/10/27 06:30:33;;;;;;;9.90;6.20;;;;;;;11.25;87.13;100514.77;1862018;77;20960;-85
2022/10/27 06:33:00;;;;;;;9.08;6.78;;;;;;;11.21;87.15;100515.06;1850478;75;21177;-87
2022/10/27 06:35:29;;;;;;;8.85;6.53;;;;;;;11.18;87.58;100517.19;1861606;75;21260;-87
2022/10/27 06:37:56;;;;;;;8.50;5.50;;;;;;;11.19;87.89;100521.53;1848916;77;20944;-86
2022/10/27 06:40:22;;;;;;;7.83;6.20;;;;;;;11.26;87.56;100523.93;1837856;77;21099;-86
2022/10/27 06:42:49;;;;;;;8.93;6.30;;;;;;;11.34;86.97;100520.50;1849695;77;21011;-84
2022/10/27 06:45:18;;;;;;;9.85;7.42;;;;;;;11.32;87.15;100527.77;1817971;76;21130;-86
2022/10/27 06:47:57;;;;;;;9.93;7.20;;;;;;;11.28;87.31;100532.59;1751138;80;21053;-87
2022/10/27 06:50:23;;;;;;;12.23;7.37;;;;;;;11.27;87.48;100537.55;1786537;80;21062;-85
2022/10/27 06:52:50;;;;;;;8.58;6.60;;;;;;;11.32;87.41;100545.92;1818717;78;21034;-88
2022/10/27 06:55:17;;;;;;;10.90;7.40;;;;;;;11.46;87.30;100544.53;1800739;77;21698;-87
2022/10/27 06:57:43;;;;;;;10.65;8.18;;;;;;;11.49;87.03;100552.22;1770313;79;21182;-87
2022/10/27 07:00:11;;;;;;;9.00;7.17;;;;;;;11.48;86.90;100545.21;1783371;80;21490;-87
2022/10/27 07:02:38;;;;;;;9.13;6.60;;;;;;;11.45;86.93;100545.51;1783051;80;21006;-88
2022/10/27 07:05:06;;;;;;;11.83;6.92;;;;;;;11.50;86.79;100547.73;1769660;80;21002;-85
2022/10/27 07:07:33;;;;;;;8.53;6.95;;;;;;;11.58;86.62;100544.61;1771526;78;21014;-87
2022/10/27 07:10:01;;;;;;;10.18;7.60;;;;;;;11.61;86.61;100544.31;1741385;79;21887;-88
2022/10/27 07:12:29;;;;;;;7.97;6.75;;;;;;;11.59;86.46;100550.80;1705518;82;21002;-87
2022/10/27 07:14:56;;;;;;;8.98;6.85;;;;;;;11.59;86.67;100549.46;1708059;83;21044;-87
2022/10/27 07:17:23;;;;;;;13.78;6.90;;;;;;;11.63;86.21;100552.63;1708971;83;21108;-84
2022/10/27 07:19:50;;;;;;;10.08;7.00;;;;;;;11.71;86.08;100554.86;1704548;82;21109;-84
2022/10/27 07:22:17;;;;;;;12.35;7.00;;;;;;;11.68;85.73;100551.17;1709425;82;21185;-83
2022/10/27 07:24:45;;;;;;;11.65;7.42;;;;;;;11.58;85.89;100561.91;1704323;82;21033;-85
2022/10/27 07:27:18;;;;;;;11.28;7.30;;;;;;;11.56;86.46;100561.23;1704476;79;23152;31
2022/10/27 07:29:48;;;;;;;;;;;;;;;11.59;86.37;100566.77;1681738;83;21084;-85
2022/10/27 07:32:13;;;;;;;8.48;6.30;;;;;;;11.70;86.09;100566.99;1679632;83;20205;-85
2022/10/27 07:34:40;;;;;;;7.75;6.90;;;;;;;11.65;85.74;100565.28;1682619;83;21086;-84
2022/10/27 07:37:07;;;;;;;12.47;7.33;;;;;;;11.58;86.46;100567.73;1676778;84;21043;-83
2022/10/27 07:39:33;;;;;;;9.88;6.83;;;;;;;11.58;86.29;100567.23;1675806;84;21100;-83
2022/10/27 07:42:00;;;;;;;8.90;7.15;;;;;;;11.63;86.58;100564.12;1676635;83;21084;-83
2022/10/27 07:44:27;;;;;;;9.90;6.35;;;;;;;11.76;86.10;100568.55;1690766;83;21131;-83
2022/10/27 07:46:53;;;;;;;13.30;6.92;;;;;;;11.80;85.62;100567.72;1677210;84;21462;-84
2022/10/27 07:49:21;;;;;;;8.98;6.45;;;;;;;11.74;85.45;100565.69;1677062;84;21656;-83
2022/10/27 07:51:47;;;;;;;9.58;6.30;;;;;;;11.69;85.67;100568.00;1679165;83;21132;-80
2022/10/27 07:54:14;;;;;;;8.93;6.20;;;;;;;11.71;85.72;100564.18;1680980;83;21041;-81
2022/10/27 07:56:40;;;;;;;11.25;6.85;;;;;;;11.85;85.51;100566.77;1647765;85;21100;-80
2022/10/27 07:59:07;;;;;;;8.83;6.83;;;;;;;11.88;85.18;100572.27;1697937;83;21103;-83
2022/10/27 08:01:33;;;;;;;11.00;7.47;;;;;;;11.82;85.12;100568.43;1688983;83;21083;-81
2022/10/27 08:04:00;;;;;;;9.68;6.40;;;;;;;11.85;85.68;100563.28;1690225;83;21107;-80
2022/10/27 08:06:26;;;;;;;9.78;6.92;;;;;;;11.98;85.52;100572.55;1689887;83;21061;-86
2022/10/27 08:08:55;;;;;;;9.50;7.05;;;;;;;12.11;84.50;100572.13;1674647;84;21545;-89
2022/10/27 08:11:23;;;;;;;11.48;7.45;;;;;;;12.07;84.40;100575.25;1694378;82;21735;-86
2022/10/27 08:13:51;;;;;;;9.70;6.87;;;;;;;12.03;84.58;100572.56;1698202;83;21714;-86
2022/10/27 08:16:19;;;;;;;10.23;6.83;;;;;;;12.02;84.62;100570.91;1698574;80;21095;-86
2022/10/27 08:18:47;;;;;;;8.25;6.15;;;;;;;12.09;84.75;100570.60;1697087;83;21347;-84
2022/10/27 08:23:55;;;;;;;11.20;6.97;;;;;;;12.35;83.96;100580.73;1739879;79;21008;-83
2022/10/27 08:26:22;;;;;;;9.33;7.00;;;;;;;12.39;84.26;100583.92;1754173;80;20968;-84
2022/10/27 08:28:50;;;;;;;6.53;5.85;;;;;;;12.42;83.51;100584.09;1730568;79;21092;-79
2022/10/27 08:31:21;;;;;;;8.18;6.08;;;;;;;12.47;83.69;100585.79;1707057;82;21032;-81
2022/10/27 08:33:45;;;;;;;9.23;5.92;;;;;;;12.63;83.57;100591.17;1689774;83;21023;-82
2022/10/27 08:36:12;;;;;;;10.50;6.30;;;;;;;12.67;82.59;100592.55;1692436;83;21126;-82
2022/10/27 08:38:39;;;;;;;12.75;6.65;;;;;;;12.67;82.16;100594.36;1671594;83;21043;-81
2022/10/27 08:41:26;;;;;;;8.93;5.33;;;;;;;12.60;82.53;100599.52;1716694;82;21085;-82
2022/10/27 08:44:06;;;;;;;8.05;6.10;;;;;;;12.63;82.57;100591.17;1712256;82;21137;-84
2022/10/27 08:47:05;;;;;;;11.30;6.75;;;;;;;12.73;82.28;100601.23;1709840;82;21074;-86
2022/10/27 08:49:43;;;;;;;7.03;5.67;;;;;;;12.64;81.43;100599.52;1618521;86;21510;-78
2022/10/27 08:52:33;;;;;;;9.80;6.37;;;;;;;12.52;82.39;100600.31;1710206;82;21022;-79
2022/10/27 08:55:14;;;;;;;7.60;5.80;;;;;;;12.56;82.51;100602.16;1710923;82;21075;-81
2022/10/27 08:57:58;;;;;;;9.83;5.12;;;;;;;12.64;81.88;100596.86;1679266;83;21066;-79
2022/10/27 09:00:24;;;;;;;8.53;5.75;;;;;;;12.74;81.51;100605.55;1658782;84;21193;-77
2022/10/27 09:03:32;;;;;;;11.35;6.40;;;;;;;12.76;81.45;100606.73;1709379;82;21248;-78
2022/10/27 09:06:07;;;;;;;9.23;5.92;;;;;;;12.78;81.34;100604.73;1705670;82;20999;-81
2022/10/27 09:08:50;;;;;;;5.95;4.37;;;;;;;12.71;80.57;100607.70;1711070;82;20983;-77
2022/10/27 09:11:51;;;;;;;8.93;5.05;;;;;;;12.68;80.58;100605.38;1709665;82;21045;-79
2022/10/27 09:14:58;;;;;;;10.68;5.22;;;;;;;12.73;80.76;100601.23;1710174;82;21073;-80
2022/10/27 09:17:44;;;;;;;6.85;4.75;;;;;;;12.73;80.64;100603.07;1710732;82;21588;-82
2022/10/27 09:20:34;;;;;;;8.30;5.55;;;;;;;12.73;80.57;100607.07;1702490;82;21047;-78
2022/10/27 09:23:05;;;;;;;9.55;5.25;;;;;;;12.70;80.77;100610.88;1710477;82;21319;-77
2022/10/27 09:25:31;;;;;;;7.47;5.20;;;;;;;12.73;80.46;100615.89;1689186;82;21059;-78
2022/10/27 09:27:59;;;;;;;5.53;4.97;;;;;;;12.77;80.38;100621.23;1701825;83;21340;-76
2022/10/27 09:30:32;;;;;;;7.80;5.72;;;;;;;12.69;80.09;100619.02;1683823;83;21646;-77
2022/10/27 09:32:59;;;;;;;8.85;5.15;;;;;;;12.57;80.25;100613.14;1684576;83;21084;-77
2022/10/27 09:35:29;;;;;;;8.18;5.05;;;;;;;12.44;80.64;100613.61;1690843;83;21064;-75
2022/10/27 09:37:58;;;;;;;7.25;4.65;;;;;;;12.48;80.88;100614.13;1683913;83;21413;-77
2022/10/27 09:40:28;;;;;;;8.08;5.15;;;;;;;12.58;80.71;100612.16;1683679;83;21097;-77
2022/10/27 09:42:55;;;;;;;7.65;5.35;;;;;;;12.57;80.95;100611.81;1685851;85;21220;-81
2022/10/27 09:45:26;;;;;;;7.97;5.10;;;;;;;12.59;80.82;100614.67;1677755;83;21041;-75
2022/10/27 09:48:01;;;;;;;8.73;5.12;;;;;;;12.62;80.57;100621.51;1692681;83;21517;-76
2022/10/27 09:50:39;;;;;;;9.10;5.08;;;;;;;12.62;80.69;100618.84;1700767;83;21089;-77
2022/10/27 09:53:39;;;;;;;8.50;5.67;;;;;;;12.75;80.24;100613.08;1692611;83;21040;-74
2022/10/27 09:56:10;;;;;;;8.88;5.62;;;;;;;12.79;79.92;100619.75;1687574;83;21824;-76
2022/10/27 09:58:44;;;;;;;6.20;5.20;;;;;;;12.78;79.87;100614.06;1685765;83;21080;-78
2022/10/27 10:01:11;;;;;;;8.43;5.83;;;;;;;12.81;79.82;100618.27;1684640;83;21564;-75
2022/10/27 10:03:39;;;;;;;7.30;4.83;;;;;;;12.81;79.71;100619.59;1683939;83;21064;-78
2022/10/27 10:06:25;;;;;;;7.40;5.00;;;;;;;12.91;79.63;100615.78;1689969;83;21584;-76
2022/10/27 10:08:52;;;;;;;8.43;5.70;;;;;;;12.98;79.16;100615.98;1621977;87;21769;-75
2022/10/27 10:11:21;;;;;;;8.43;5.50;;;;;;;12.96;78.96;100622.81;1664000;83;21058;-76
2022/10/27 10:13:59;;;;;;;11.18;5.30;;;;;;;12.97;79.00;100623.63;1688595;85;21064;-76
2022/10/27 10:16:29;;;;;;;9.03;5.75;;;;;;;12.95;78.69;100613.63;1682510;83;21123;-76
2022/10/27 10:19:12;;;;;;;7.10;4.90;;;;;;;12.96;78.73;100617.47;1658480;85;21526;-78
2022/10/27 10:21:57;;;;;;;5.75;4.55;;;;;;;13.12;79.03;100615.34;1689225;83;21219;-80
2022/10/27 10:24:27;;;;;;;8.40;5.70;;;;;;;13.27;78.67;100618.22;1689887;83;21072;-81
2022/10/27 10:27:02;;;;;;;9.38;5.10;;;;;;;13.32;77.93;100623.08;1685616;83;21699;-77
2022/10/27 10:29:37;;;;;;;8.13;5.62;;;;;;;13.35;77.89;100618.77;1712872;82;21093;-78
2022/10/27 10:32:18;;;;;;;6.62;4.67;;;;;;;13.36;77.21;100616.41;1710811;82;21036;-79
2022/10/27 10:34:46;;;;;;;8.70;5.15;;;;;;;13.34;77.03;100622.41;1707574;82;22583;-78
2022/10/27 10:37:38;;;;;;;14.00;5.87;;;;;;;13.42;77.17;100617.59;1712304;82;21041;-79
2022/10/27 10:40:16;;;;;;;6.90;5.65;;;;;;;13.51;77.20;100617.42;1713155;82;21066;-79
2022/10/27 10:42:45;;;;;;;7.05;4.75;;;;;;;13.54;76.22;100618.44;1711846;82;21525;-77
2022/10/27 10:45:25;;;;;;;10.23;5.80;;;;;;;13.54;76.71;100615.77;1706769;82;21066;-79
2022/10/27 10:48:01;;;;;;;8.20;5.72;;;;;;;13.61;76.11;100609.25;1706971;83;21575;-81
2022/10/27 10:50:27;;;;;;;6.85;5.12;;;;;;;13.73;76.57;100608.41;1702348;82;21641;-77
2022/10/27 10:52:58;;;;;;;7.20;4.65;;;;;;;13.99;77.24;100606.08;1711141;82;21457;-91
2022/10/27 10:55:30;;;;;;;9.78;5.30;;;;;;;14.23;75.05;100603.33;1711348;82;21917;-81
2022/10/27 10:57:56;;;;;;;5.67;4.42;;;;;;;14.37;75.39;100608.50;1711541;82;21546;-79
2022/10/27 11:00:24;;;;;;;7.75;5.87;;;;;;;14.51;73.96;100605.61;1731634;82;21136;-79
2022/10/27 11:03:01;;;;;;;8.45;5.25;;;;;;;14.54;72.97;100605.25;1691744;82;21005;-80
2022/10/27 11:05:34;;;;;;;6.90;4.85;;;;;;;14.57;73.25;100602.27;1708956;82;21023;-80
2022/10/27 11:08:01;;;;;;;6.85;5.05;;;;;;;14.72;73.34;100601.88;1710637;82;21546;-76
2022/10/27 11:10:34;;;;;;;7.10;5.45;;;;;;;14.99;72.35;100602.89;1710275;82;21021;-81
2022/10/27 11:13:15;;;;;;;;;;;;;;;15.18;73.16;100602.95;1712733;82;21291;-76
2022/10/27 11:15:47;;;;;;;9.65;4.85;;;;;;;15.39;71.67;100599.12;1695738;83;20232;-78
2022/10/27 11:18:24;;;;;;;7.90;4.62;;;;;;;15.40;69.48;100600.80;1708490;82;21570;-79
2022/10/27 11:21:22;;;;;;;7.42;4.33;;;;;;;15.14;69.48;100596.64;1709210;82;21054;-77
2022/10/27 11:23:52;;;;;;;7.45;4.62;;;;;;;14.93;70.05;100611.12;1710208;82;21014;-78
2022/10/27 11:26:30;;;;;;;5.80;4.58;;;;;;;14.75;70.60;100614.05;1710752;82;21240;-78
2022/10/27 11:29:23;;;;;;;5.78;4.28;;;;;;;14.64;70.69;100611.27;1714527;82;21061;-80
2022/10/27 11:32:44;;;;;;;6.20;3.98;;;;;;;14.55;71.20;100614.44;1723867;82;20973;-77
2022/10/27 11:35:38;;;;;;;6.92;4.28;;;;;;;14.51;71.71;100624.33;1739535;81;21590;-80
2022/10/27 11:38:27;;;;;;;6.67;4.50;;;;;;;14.50;72.48;100622.64;1692609;81;21082;-78
2022/10/27 11:41:09;;;;;;;5.40;3.90;;;;;;;14.51;71.57;100624.33;1731248;81;21594;-80
2022/10/27 11:43:47;;;;;;;6.50;3.80;;;;;;;14.49;71.58;100630.34;1731259;81;21587;-81
2022/10/27 11:46:43;;;;;;;4.33;3.75;;;;;;;14.49;71.82;100633.84;1736247;81;21010;-76
2022/10/27 11:49:30;;;;;;;6.30;3.65;;;;;;;14.60;71.25;100629.98;1743167;81;21060;-78